Aviation Digital Data Service (ADDS)

Output produced by METARs form (1046 UTC 10 February 2016)
found at http://aviationweather.gov/adds/metars/
 
KRUT 100821Z 1008/1106 13005KT P6SM VCSH OVC018 
     TEMPO 1008/1012 BKN020 OVC035 
     FM101500 22006KT P6SM VCSH OVC020 
     FM102200 26005KT P6SM VCSH OVC020 AMD LTD TO CLD VIS AND WIND